sensor_id;sensor_type;location;lat;lon;timestamp;P1;durP1;ratioP1;P2;durP2;ratioP2
40471;SDS011;26174;42.908;23.800;2024-01-16T00:01:20;3.55;;;2.28;;
40471;SDS011;26174;42.908;23.800;2024-01-16T00:03:45;3.60;;;1.75;;
40471;SDS011;26174;42.908;23.800;2024-01-16T00:06:11;1.92;;;1.33;;
40471;SDS011;26174;42.908;23.800;2024-01-16T00:08:37;3.90;;;2.40;;
40471;SDS011;26174;42.908;23.800;2024-01-16T00:11:03;3.67;;;1.73;;
40471;SDS011;26174;42.908;23.800;2024-01-16T00:13:28;3.83;;;1.95;;
40471;SDS011;26174;42.908;23.800;2024-01-16T00:15:54;4.47;;;1.92;;
40471;SDS011;26174;42.908;23.800;2024-01-16T00:18:22;5.68;;;2.58;;
40471;SDS011;26174;42.908;23.800;2024-01-16T00:20:48;3.97;;;1.98;;
40471;SDS011;26174;42.908;23.800;2024-01-16T00:23:14;2.40;;;1.55;;
40471;SDS011;26174;42.908;23.800;2024-01-16T00:25:39;1.50;;;1.10;;
40471;SDS011;26174;42.908;23.800;2024-01-16T00:28:06;4.28;;;2.50;;
40471;SDS011;26174;42.908;23.800;2024-01-16T00:30:31;3.53;;;2.00;;
40471;SDS011;26174;42.908;23.800;2024-01-16T00:32:58;3.28;;;1.60;;
40471;SDS011;26174;42.908;23.800;2024-01-16T00:35:24;4.15;;;2.15;;
40471;SDS011;26174;42.908;23.800;2024-01-16T00:37:50;2.80;;;1.58;;
40471;SDS011;26174;42.908;23.800;2024-01-16T00:40:15;3.67;;;2.15;;
40471;SDS011;26174;42.908;23.800;2024-01-16T00:42:41;4.40;;;2.42;;
40471;SDS011;26174;42.908;23.800;2024-01-16T00:45:06;3.55;;;2.20;;
40471;SDS011;26174;42.908;23.800;2024-01-16T00:47:32;3.47;;;2.25;;
40471;SDS011;26174;42.908;23.800;2024-01-16T00:49:58;4.13;;;2.40;;
40471;SDS011;26174;42.908;23.800;2024-01-16T00:52:25;7.13;;;3.20;;
40471;SDS011;26174;42.908;23.800;2024-01-16T00:54:51;5.88;;;2.97;;
40471;SDS011;26174;42.908;23.800;2024-01-16T00:57:17;7.05;;;3.63;;
40471;SDS011;26174;42.908;23.800;2024-01-16T00:59:44;6.40;;;3.47;;
40471;SDS011;26174;42.908;23.800;2024-01-16T01:02:11;4.53;;;2.53;;
40471;SDS011;26174;42.908;23.800;2024-01-16T01:04:37;4.90;;;2.88;;
40471;SDS011;26174;42.908;23.800;2024-01-16T01:07:02;6.30;;;3.03;;
40471;SDS011;26174;42.908;23.800;2024-01-16T01:09:28;4.90;;;3.10;;
40471;SDS011;26174;42.908;23.800;2024-01-16T01:11:54;5.53;;;3.00;;
40471;SDS011;26174;42.908;23.800;2024-01-16T01:14:20;6.60;;;3.38;;
40471;SDS011;26174;42.908;23.800;2024-01-16T01:16:45;7.88;;;3.15;;
40471;SDS011;26174;42.908;23.800;2024-01-16T01:19:11;6.55;;;3.10;;
40471;SDS011;26174;42.908;23.800;2024-01-16T01:21:37;5.82;;;2.63;;
40471;SDS011;26174;42.908;23.800;2024-01-16T01:24:03;7.65;;;3.15;;
40471;SDS011;26174;42.908;23.800;2024-01-16T01:26:29;19.95;;;7.95;;
40471;SDS011;26174;42.908;23.800;2024-01-16T01:28:54;16.00;;;6.60;;
40471;SDS011;26174;42.908;23.800;2024-01-16T01:31:20;10.45;;;4.18;;
40471;SDS011;26174;42.908;23.800;2024-01-16T01:33:45;5.32;;;2.83;;
40471;SDS011;26174;42.908;23.800;2024-01-16T01:36:12;4.75;;;2.72;;
40471;SDS011;26174;42.908;23.800;2024-01-16T01:38:38;6.97;;;2.92;;
40471;SDS011;26174;42.908;23.800;2024-01-16T01:41:03;5.45;;;2.92;;
40471;SDS011;26174;42.908;23.800;2024-01-16T01:43:29;7.30;;;3.53;;
40471;SDS011;26174;42.908;23.800;2024-01-16T01:46:07;4.88;;;2.85;;
40471;SDS011;26174;42.908;23.800;2024-01-16T01:48:44;6.82;;;3.58;;
40471;SDS011;26174;42.908;23.800;2024-01-16T01:51:12;7.13;;;3.92;;
40471;SDS011;26174;42.908;23.800;2024-01-16T01:53:38;6.47;;;3.95;;
40471;SDS011;26174;42.908;23.800;2024-01-16T01:56:07;5.38;;;3.38;;
40471;SDS011;26174;42.908;23.800;2024-01-16T01:58:34;5.55;;;3.33;;
40471;SDS011;26174;42.908;23.800;2024-01-16T02:01:02;6.70;;;3.13;;
40471;SDS011;26174;42.908;23.800;2024-01-16T02:03:29;4.68;;;2.50;;
40471;SDS011;26174;42.908;23.800;2024-01-16T02:05:55;4.65;;;2.90;;
40471;SDS011;26174;42.908;23.800;2024-01-16T02:08:21;4.00;;;2.42;;
40471;SDS011;26174;42.908;23.800;2024-01-16T02:10:47;8.77;;;3.35;;
40471;SDS011;26174;42.908;23.800;2024-01-16T02:13:15;5.03;;;3.00;;
40471;SDS011;26174;42.908;23.800;2024-01-16T02:15:40;5.03;;;2.50;;
40471;SDS011;26174;42.908;23.800;2024-01-16T02:18:06;4.68;;;2.40;;
40471;SDS011;26174;42.908;23.800;2024-01-16T02:20:32;6.05;;;2.92;;
40471;SDS011;26174;42.908;23.800;2024-01-16T02:22:59;4.30;;;2.20;;
40471;SDS011;26174;42.908;23.800;2024-01-16T02:25:25;4.47;;;2.60;;
40471;SDS011;26174;42.908;23.800;2024-01-16T02:27:51;5.47;;;2.63;;
40471;SDS011;26174;42.908;23.800;2024-01-16T02:30:17;6.50;;;4.28;;
40471;SDS011;26174;42.908;23.800;2024-01-16T02:32:43;21.92;;;11.20;;
40471;SDS011;26174;42.908;23.800;2024-01-16T02:35:08;27.17;;;13.35;;
40471;SDS011;26174;42.908;23.800;2024-01-16T02:37:35;29.58;;;15.20;;
40471;SDS011;26174;42.908;23.800;2024-01-16T02:40:00;36.05;;;17.63;;
40471;SDS011;26174;42.908;23.800;2024-01-16T02:42:31;35.90;;;17.13;;
40471;SDS011;26174;42.908;23.800;2024-01-16T02:44:57;32.55;;;16.48;;
40471;SDS011;26174;42.908;23.800;2024-01-16T02:47:23;41.45;;;17.67;;
40471;SDS011;26174;42.908;23.800;2024-01-16T02:49:48;32.00;;;15.98;;
40471;SDS011;26174;42.908;23.800;2024-01-16T02:52:14;34.08;;;15.88;;
40471;SDS011;26174;42.908;23.800;2024-01-16T02:54:40;31.98;;;15.30;;
40471;SDS011;26174;42.908;23.800;2024-01-16T02:57:05;33.30;;;14.45;;
40471;SDS011;26174;42.908;23.800;2024-01-16T02:59:31;36.65;;;17.65;;
40471;SDS011;26174;42.908;23.800;2024-01-16T03:01:56;33.50;;;16.35;;
40471;SDS011;26174;42.908;23.800;2024-01-16T03:04:22;34.47;;;17.20;;
40471;SDS011;26174;42.908;23.800;2024-01-16T03:06:48;34.35;;;15.90;;
40471;SDS011;26174;42.908;23.800;2024-01-16T03:09:14;27.63;;;12.82;;
40471;SDS011;26174;42.908;23.800;2024-01-16T03:11:40;25.52;;;12.35;;
40471;SDS011;26174;42.908;23.800;2024-01-16T03:14:05;24.55;;;13.10;;
40471;SDS011;26174;42.908;23.800;2024-01-16T03:16:31;24.25;;;11.63;;
40471;SDS011;26174;42.908;23.800;2024-01-16T03:18:57;18.30;;;9.45;;
40471;SDS011;26174;42.908;23.800;2024-01-16T03:21:23;20.85;;;10.00;;
40471;SDS011;26174;42.908;23.800;2024-01-16T03:23:48;16.45;;;8.68;;
40471;SDS011;26174;42.908;23.800;2024-01-16T03:26:15;15.70;;;7.95;;
40471;SDS011;26174;42.908;23.800;2024-01-16T03:28:41;12.57;;;6.90;;
40471;SDS011;26174;42.908;23.800;2024-01-16T03:31:06;15.23;;;7.00;;
40471;SDS011;26174;42.908;23.800;2024-01-16T03:33:32;13.40;;;6.65;;
40471;SDS011;26174;42.908;23.800;2024-01-16T03:35:59;10.43;;;6.10;;
40471;SDS011;26174;42.908;23.800;2024-01-16T03:38:25;11.00;;;5.95;;
40471;SDS011;26174;42.908;23.800;2024-01-16T03:40:51;22.10;;;10.50;;
40471;SDS011;26174;42.908;23.800;2024-01-16T03:43:17;13.02;;;6.80;;
40471;SDS011;26174;42.908;23.800;2024-01-16T03:45:43;27.35;;;13.40;;
40471;SDS011;26174;42.908;23.800;2024-01-16T03:48:09;68.88;;;34.50;;
40471;SDS011;26174;42.908;23.800;2024-01-16T03:50:35;14.43;;;7.68;;
40471;SDS011;26174;42.908;23.800;2024-01-16T03:53:01;10.20;;;5.57;;
40471;SDS011;26174;42.908;23.800;2024-01-16T03:55:29;8.98;;;4.88;;
40471;SDS011;26174;42.908;23.800;2024-01-16T03:57:56;8.48;;;4.82;;
40471;SDS011;26174;42.908;23.800;2024-01-16T04:00:21;9.02;;;4.85;;
40471;SDS011;26174;42.908;23.800;2024-01-16T04:02:47;12.05;;;5.43;;
40471;SDS011;26174;42.908;23.800;2024-01-16T04:05:13;11.27;;;4.65;;
40471;SDS011;26174;42.908;23.800;2024-01-16T04:07:38;17.02;;;6.47;;
40471;SDS011;26174;42.908;23.800;2024-01-16T04:10:05;18.77;;;6.82;;
40471;SDS011;26174;42.908;23.800;2024-01-16T04:12:32;21.08;;;6.65;;
40471;SDS011;26174;42.908;23.800;2024-01-16T04:14:57;16.10;;;6.57;;
40471;SDS011;26174;42.908;23.800;2024-01-16T04:17:23;11.90;;;5.35;;
40471;SDS011;26174;42.908;23.800;2024-01-16T04:19:48;20.60;;;7.80;;
40471;SDS011;26174;42.908;23.800;2024-01-16T04:22:14;16.30;;;5.90;;
40471;SDS011;26174;42.908;23.800;2024-01-16T04:24:39;16.42;;;5.93;;
40471;SDS011;26174;42.908;23.800;2024-01-16T04:27:05;7.68;;;4.30;;
40471;SDS011;26174;42.908;23.800;2024-01-16T04:29:31;7.18;;;4.07;;
40471;SDS011;26174;42.908;23.800;2024-01-16T04:31:56;6.05;;;3.85;;
40471;SDS011;26174;42.908;23.800;2024-01-16T04:34:22;6.65;;;3.70;;
40471;SDS011;26174;42.908;23.800;2024-01-16T04:36:48;9.80;;;4.85;;
40471;SDS011;26174;42.908;23.800;2024-01-16T04:39:14;11.88;;;5.03;;
40471;SDS011;26174;42.908;23.800;2024-01-16T04:41:39;8.55;;;4.40;;
40471;SDS011;26174;42.908;23.800;2024-01-16T04:44:05;7.05;;;3.53;;
40471;SDS011;26174;42.908;23.800;2024-01-16T04:46:30;9.00;;;5.00;;
40471;SDS011;26174;42.908;23.800;2024-01-16T04:48:57;7.40;;;4.07;;
40471;SDS011;26174;42.908;23.800;2024-01-16T04:51:23;9.93;;;5.55;;
40471;SDS011;26174;42.908;23.800;2024-01-16T04:53:49;7.47;;;4.00;;
40471;SDS011;26174;42.908;23.800;2024-01-16T04:56:15;8.10;;;4.13;;
40471;SDS011;26174;42.908;23.800;2024-01-16T04:58:40;8.48;;;4.50;;
40471;SDS011;26174;42.908;23.800;2024-01-16T05:01:06;11.32;;;4.70;;
40471;SDS011;26174;42.908;23.800;2024-01-16T05:03:31;8.95;;;4.28;;
40471;SDS011;26174;42.908;23.800;2024-01-16T05:06:03;13.60;;;4.53;;
40471;SDS011;26174;42.908;23.800;2024-01-16T05:08:54;8.73;;;4.10;;
40471;SDS011;26174;42.908;23.800;2024-01-16T05:11:25;13.50;;;4.88;;
40471;SDS011;26174;42.908;23.800;2024-01-16T05:13:51;10.35;;;4.40;;
40471;SDS011;26174;42.908;23.800;2024-01-16T05:16:23;10.35;;;4.15;;
40471;SDS011;26174;42.908;23.800;2024-01-16T05:18:50;6.55;;;3.58;;
40471;SDS011;26174;42.908;23.800;2024-01-16T05:21:15;6.50;;;3.42;;
40471;SDS011;26174;42.908;23.800;2024-01-16T05:23:41;7.32;;;4.00;;
40471;SDS011;26174;42.908;23.800;2024-01-16T05:26:06;6.93;;;4.22;;
40471;SDS011;26174;42.908;23.800;2024-01-16T05:28:32;10.10;;;5.00;;
40471;SDS011;26174;42.908;23.800;2024-01-16T05:30:57;10.65;;;4.55;;
40471;SDS011;26174;42.908;23.800;2024-01-16T05:33:24;13.52;;;4.97;;
40471;SDS011;26174;42.908;23.800;2024-01-16T05:36:00;9.77;;;5.10;;
40471;SDS011;26174;42.908;23.800;2024-01-16T05:38:32;12.23;;;6.95;;
40471;SDS011;26174;42.908;23.800;2024-01-16T05:41:00;7.68;;;4.28;;
40471;SDS011;26174;42.908;23.800;2024-01-16T05:43:26;11.35;;;5.82;;
40471;SDS011;26174;42.908;23.800;2024-01-16T05:51:40;23.48;;;10.48;;
40471;SDS011;26174;42.908;23.800;2024-01-16T05:54:07;20.48;;;9.98;;
40471;SDS011;26174;42.908;23.800;2024-01-16T05:56:42;25.58;;;11.95;;
40471;SDS011;26174;42.908;23.800;2024-01-16T05:59:17;32.15;;;13.48;;
40471;SDS011;26174;42.908;23.800;2024-01-16T06:01:42;29.17;;;14.52;;
40471;SDS011;26174;42.908;23.800;2024-01-16T06:04:08;31.25;;;13.40;;
40471;SDS011;26174;42.908;23.800;2024-01-16T06:06:33;36.97;;;15.73;;
40471;SDS011;26174;42.908;23.800;2024-01-16T06:09:09;43.13;;;21.83;;
40471;SDS011;26174;42.908;23.800;2024-01-16T06:11:39;52.10;;;24.35;;
40471;SDS011;26174;42.908;23.800;2024-01-16T06:14:06;55.38;;;25.10;;
40471;SDS011;26174;42.908;23.800;2024-01-16T06:16:32;62.80;;;25.75;;
40471;SDS011;26174;42.908;23.800;2024-01-16T06:18:58;52.08;;;23.88;;
40471;SDS011;26174;42.908;23.800;2024-01-16T06:21:23;51.53;;;22.77;;
40471;SDS011;26174;42.908;23.800;2024-01-16T06:23:50;61.13;;;23.55;;
40471;SDS011;26174;42.908;23.800;2024-01-16T06:26:17;80.22;;;31.83;;
40471;SDS011;26174;42.908;23.800;2024-01-16T06:28:43;48.00;;;22.10;;
40471;SDS011;26174;42.908;23.800;2024-01-16T06:31:08;55.30;;;22.38;;
40471;SDS011;26174;42.908;23.800;2024-01-16T06:33:41;41.65;;;17.00;;
40471;SDS011;26174;42.908;23.800;2024-01-16T06:36:25;37.28;;;14.52;;
40471;SDS011;26174;42.908;23.800;2024-01-16T06:39:12;32.33;;;15.15;;
40471;SDS011;26174;42.908;23.800;2024-01-16T06:41:40;45.03;;;20.02;;
40471;SDS011;26174;42.908;23.800;2024-01-16T06:44:12;73.80;;;30.13;;
40471;SDS011;26174;42.908;23.800;2024-01-16T06:46:40;36.38;;;15.15;;
40471;SDS011;26174;42.908;23.800;2024-01-16T06:49:13;27.88;;;13.27;;
40471;SDS011;26174;42.908;23.800;2024-01-16T06:51:39;29.50;;;15.13;;
40471;SDS011;26174;42.908;23.800;2024-01-16T06:54:13;36.72;;;17.58;;
40471;SDS011;26174;42.908;23.800;2024-01-16T06:56:39;34.58;;;15.23;;
40471;SDS011;26174;42.908;23.800;2024-01-16T06:59:11;54.00;;;25.10;;
40471;SDS011;26174;42.908;23.800;2024-01-16T07:01:39;57.42;;;25.88;;
40471;SDS011;26174;42.908;23.800;2024-01-16T07:04:07;72.80;;;28.20;;
40471;SDS011;26174;42.908;23.800;2024-01-16T07:09:06;72.55;;;31.30;;
40471;SDS011;26174;42.908;23.800;2024-01-16T07:11:32;43.88;;;19.58;;
40471;SDS011;26174;42.908;23.800;2024-01-16T07:14:00;42.97;;;20.85;;
40471;SDS011;26174;42.908;23.800;2024-01-16T07:16:28;46.75;;;22.63;;
40471;SDS011;26174;42.908;23.800;2024-01-16T07:18:54;41.08;;;19.90;;
40471;SDS011;26174;42.908;23.800;2024-01-16T07:21:20;44.25;;;20.98;;
40471;SDS011;26174;42.908;23.800;2024-01-16T07:23:46;39.88;;;18.73;;
40471;SDS011;26174;42.908;23.800;2024-01-16T07:26:12;49.25;;;21.20;;
40471;SDS011;26174;42.908;23.800;2024-01-16T07:28:59;53.72;;;24.83;;
40471;SDS011;26174;42.908;23.800;2024-01-16T07:31:25;50.92;;;23.92;;
40471;SDS011;26174;42.908;23.800;2024-01-16T07:33:50;40.28;;;19.02;;
40471;SDS011;26174;42.908;23.800;2024-01-16T07:36:16;58.08;;;26.60;;
40471;SDS011;26174;42.908;23.800;2024-01-16T07:38:42;51.90;;;23.48;;
40471;SDS011;26174;42.908;23.800;2024-01-16T07:41:07;47.58;;;23.70;;
40471;SDS011;26174;42.908;23.800;2024-01-16T07:43:49;40.80;;;21.35;;
40471;SDS011;26174;42.908;23.800;2024-01-16T07:46:15;48.58;;;23.58;;
40471;SDS011;26174;42.908;23.800;2024-01-16T07:48:48;44.70;;;19.60;;
40471;SDS011;26174;42.908;23.800;2024-01-16T07:51:17;49.42;;;24.38;;
40471;SDS011;26174;42.908;23.800;2024-01-16T07:53:44;67.15;;;32.25;;
40471;SDS011;26174;42.908;23.800;2024-01-16T07:56:20;53.85;;;26.10;;
40471;SDS011;26174;42.908;23.800;2024-01-16T07:58:46;56.15;;;24.15;;
40471;SDS011;26174;42.908;23.800;2024-01-16T08:01:14;47.92;;;23.40;;
40471;SDS011;26174;42.908;23.800;2024-01-16T08:03:42;42.03;;;21.40;;
40471;SDS011;26174;42.908;23.800;2024-01-16T08:06:28;31.95;;;16.73;;
40471;SDS011;26174;42.908;23.800;2024-01-16T08:08:53;33.13;;;15.48;;
40471;SDS011;26174;42.908;23.800;2024-01-16T08:11:19;53.13;;;26.63;;
40471;SDS011;26174;42.908;23.800;2024-01-16T08:13:45;71.70;;;36.40;;
40471;SDS011;26174;42.908;23.800;2024-01-16T08:16:10;34.17;;;18.10;;
40471;SDS011;26174;42.908;23.800;2024-01-16T08:18:36;30.27;;;16.27;;
40471;SDS011;26174;42.908;23.800;2024-01-16T08:21:10;29.40;;;14.93;;
40471;SDS011;26174;42.908;23.800;2024-01-16T08:23:36;36.60;;;17.50;;
40471;SDS011;26174;42.908;23.800;2024-01-16T08:26:02;34.03;;;17.35;;
40471;SDS011;26174;42.908;23.800;2024-01-16T08:28:27;40.35;;;19.83;;
40471;SDS011;26174;42.908;23.800;2024-01-16T08:30:53;40.72;;;20.23;;
40471;SDS011;26174;42.908;23.800;2024-01-16T08:33:19;34.42;;;18.08;;
40471;SDS011;26174;42.908;23.800;2024-01-16T08:35:44;35.47;;;17.40;;
40471;SDS011;26174;42.908;23.800;2024-01-16T08:38:10;31.20;;;15.63;;
40471;SDS011;26174;42.908;23.800;2024-01-16T08:40:36;32.72;;;16.45;;
40471;SDS011;26174;42.908;23.800;2024-01-16T08:43:01;39.13;;;18.88;;
40471;SDS011;26174;42.908;23.800;2024-01-16T08:45:28;67.13;;;28.95;;
40471;SDS011;26174;42.908;23.800;2024-01-16T08:47:54;61.30;;;25.40;;
40471;SDS011;26174;42.908;23.800;2024-01-16T08:50:20;40.25;;;19.00;;
40471;SDS011;26174;42.908;23.800;2024-01-16T08:52:45;31.98;;;16.20;;
40471;SDS011;26174;42.908;23.800;2024-01-16T08:55:11;27.77;;;12.93;;
40471;SDS011;26174;42.908;23.800;2024-01-16T08:57:37;29.13;;;11.98;;
40471;SDS011;26174;42.908;23.800;2024-01-16T09:00:05;15.48;;;8.60;;
40471;SDS011;26174;42.908;23.800;2024-01-16T09:02:32;16.02;;;7.13;;
40471;SDS011;26174;42.908;23.800;2024-01-16T09:04:57;14.05;;;7.10;;
40471;SDS011;26174;42.908;23.800;2024-01-16T09:07:27;8.40;;;4.28;;
40471;SDS011;26174;42.908;23.800;2024-01-16T09:09:52;7.55;;;3.70;;
40471;SDS011;26174;42.908;23.800;2024-01-16T09:12:18;6.57;;;3.47;;
40471;SDS011;26174;42.908;23.800;2024-01-16T09:14:44;6.93;;;3.53;;
40471;SDS011;26174;42.908;23.800;2024-01-16T09:17:10;6.93;;;3.60;;
40471;SDS011;26174;42.908;23.800;2024-01-16T09:19:36;5.03;;;3.05;;
40471;SDS011;26174;42.908;23.800;2024-01-16T09:22:01;9.07;;;3.90;;
40471;SDS011;26174;42.908;23.800;2024-01-16T09:24:28;7.90;;;3.58;;
40471;SDS011;26174;42.908;23.800;2024-01-16T09:26:54;6.30;;;4.10;;
40471;SDS011;26174;42.908;23.800;2024-01-16T09:29:19;12.50;;;5.88;;
40471;SDS011;26174;42.908;23.800;2024-01-16T09:31:46;26.13;;;13.32;;
40471;SDS011;26174;42.908;23.800;2024-01-16T09:34:12;10.30;;;4.40;;
40471;SDS011;26174;42.908;23.800;2024-01-16T09:36:39;8.63;;;4.60;;
40471;SDS011;26174;42.908;23.800;2024-01-16T09:39:05;7.60;;;3.78;;
40471;SDS011;26174;42.908;23.800;2024-01-16T09:41:39;9.85;;;4.43;;
40471;SDS011;26174;42.908;23.800;2024-01-16T09:44:05;12.85;;;4.30;;
40471;SDS011;26174;42.908;23.800;2024-01-16T09:46:31;6.88;;;3.05;;
40471;SDS011;26174;42.908;23.800;2024-01-16T09:48:57;3.63;;;2.03;;
40471;SDS011;26174;42.908;23.800;2024-01-16T09:51:25;3.85;;;1.92;;
40471;SDS011;26174;42.908;23.800;2024-01-16T09:53:50;10.35;;;4.68;;
40471;SDS011;26174;42.908;23.800;2024-01-16T09:56:18;14.65;;;6.80;;
40471;SDS011;26174;42.908;23.800;2024-01-16T09:58:48;16.17;;;6.45;;
40471;SDS011;26174;42.908;23.800;2024-01-16T10:01:14;25.88;;;11.70;;
40471;SDS011;26174;42.908;23.800;2024-01-16T10:03:41;15.27;;;7.07;;
40471;SDS011;26174;42.908;23.800;2024-01-16T10:06:09;21.92;;;8.93;;
40471;SDS011;26174;42.908;23.800;2024-01-16T10:08:35;14.00;;;7.00;;
40471;SDS011;26174;42.908;23.800;2024-01-16T10:11:02;9.68;;;4.32;;
40471;SDS011;26174;42.908;23.800;2024-01-16T10:13:28;14.63;;;7.28;;
40471;SDS011;26174;42.908;23.800;2024-01-16T10:15:54;4.13;;;2.15;;
40471;SDS011;26174;42.908;23.800;2024-01-16T10:18:23;4.45;;;1.77;;
40471;SDS011;26174;42.908;23.800;2024-01-16T10:20:49;5.35;;;2.05;;
40471;SDS011;26174;42.908;23.800;2024-01-16T10:23:28;3.50;;;2.33;;
40471;SDS011;26174;42.908;23.800;2024-01-16T10:26:04;3.00;;;1.83;;
40471;SDS011;26174;42.908;23.800;2024-01-16T10:28:30;2.78;;;1.70;;
40471;SDS011;26174;42.908;23.800;2024-01-16T10:31:01;2.47;;;1.75;;
40471;SDS011;26174;42.908;23.800;2024-01-16T10:33:27;2.53;;;1.88;;
40471;SDS011;26174;42.908;23.800;2024-01-16T10:36:02;3.38;;;1.88;;
40471;SDS011;26174;42.908;23.800;2024-01-16T10:38:36;3.35;;;2.42;;
40471;SDS011;26174;42.908;23.800;2024-01-16T10:43:38;17.92;;;3.58;;
40471;SDS011;26174;42.908;23.800;2024-01-16T10:46:14;8.88;;;4.22;;
40471;SDS011;26174;42.908;23.800;2024-01-16T10:48:45;9.77;;;3.63;;
40471;SDS011;26174;42.908;23.800;2024-01-16T10:51:27;6.28;;;2.92;;
40471;SDS011;26174;42.908;23.800;2024-01-16T10:53:58;3.33;;;2.30;;
40471;SDS011;26174;42.908;23.800;2024-01-16T10:56:27;4.40;;;2.28;;
40471;SDS011;26174;42.908;23.800;2024-01-16T11:01:40;3.28;;;1.90;;
40471;SDS011;26174;42.908;23.800;2024-01-16T11:04:09;4.43;;;2.20;;
40471;SDS011;26174;42.908;23.800;2024-01-16T11:06:35;4.88;;;2.33;;
40471;SDS011;26174;42.908;23.800;2024-01-16T11:09:01;4.95;;;2.45;;
40471;SDS011;26174;42.908;23.800;2024-01-16T11:11:27;5.57;;;2.50;;
40471;SDS011;26174;42.908;23.800;2024-01-16T11:13:53;4.70;;;2.35;;
40471;SDS011;26174;42.908;23.800;2024-01-16T11:16:20;6.65;;;2.40;;
40471;SDS011;26174;42.908;23.800;2024-01-16T11:18:46;5.90;;;2.20;;
40471;SDS011;26174;42.908;23.800;2024-01-16T11:21:12;7.35;;;2.60;;
40471;SDS011;26174;42.908;23.800;2024-01-16T11:23:39;7.78;;;2.67;;
40471;SDS011;26174;42.908;23.800;2024-01-16T11:26:26;14.23;;;3.72;;
40471;SDS011;26174;42.908;23.800;2024-01-16T11:28:52;8.05;;;2.47;;
40471;SDS011;26174;42.908;23.800;2024-01-16T11:31:31;9.75;;;2.97;;
40471;SDS011;26174;42.908;23.800;2024-01-16T11:33:58;15.55;;;3.78;;
40471;SDS011;26174;42.908;23.800;2024-01-16T11:39:23;10.52;;;3.38;;
40471;SDS011;26174;42.908;23.800;2024-01-16T11:41:50;11.73;;;3.10;;
40471;SDS011;26174;42.908;23.800;2024-01-16T11:44:36;10.55;;;3.20;;
40471;SDS011;26174;42.908;23.800;2024-01-16T11:47:05;3.55;;;1.52;;
40471;SDS011;26174;42.908;23.800;2024-01-16T11:49:31;3.65;;;1.25;;
40471;SDS011;26174;42.908;23.800;2024-01-16T11:51:58;4.15;;;1.33;;
40471;SDS011;26174;42.908;23.800;2024-01-16T11:54:24;9.32;;;1.40;;
40471;SDS011;26174;42.908;23.800;2024-01-16T11:59:59;5.18;;;3.35;;
40471;SDS011;26174;42.908;23.800;2024-01-16T12:05:14;1.48;;;1.30;;
40471;SDS011;26174;42.908;23.800;2024-01-16T12:07:45;19.27;;;9.43;;
40471;SDS011;26174;42.908;23.800;2024-01-16T12:10:11;1.63;;;1.23;;
40471;SDS011;26174;42.908;23.800;2024-01-16T12:12:36;7.60;;;1.70;;
40471;SDS011;26174;42.908;23.800;2024-01-16T12:15:02;1.88;;;0.95;;
40471;SDS011;26174;42.908;23.800;2024-01-16T12:17:29;4.13;;;1.25;;
40471;SDS011;26174;42.908;23.800;2024-01-16T12:19:54;7.07;;;1.85;;
40471;SDS011;26174;42.908;23.800;2024-01-16T12:22:21;10.40;;;4.32;;
40471;SDS011;26174;42.908;23.800;2024-01-16T12:24:47;13.30;;;4.00;;
40471;SDS011;26174;42.908;23.800;2024-01-16T12:27:13;19.30;;;8.13;;
40471;SDS011;26174;42.908;23.800;2024-01-16T12:29:39;22.90;;;12.32;;
40471;SDS011;26174;42.908;23.800;2024-01-16T12:32:12;23.30;;;7.88;;
40471;SDS011;26174;42.908;23.800;2024-01-16T12:34:49;15.48;;;6.80;;
40471;SDS011;26174;42.908;23.800;2024-01-16T12:37:14;13.95;;;5.78;;
40471;SDS011;26174;42.908;23.800;2024-01-16T12:39:40;17.10;;;6.63;;
40471;SDS011;26174;42.908;23.800;2024-01-16T12:42:07;9.65;;;3.22;;
40471;SDS011;26174;42.908;23.800;2024-01-16T12:44:34;7.68;;;2.50;;
40471;SDS011;26174;42.908;23.800;2024-01-16T12:47:01;6.78;;;3.60;;
40471;SDS011;26174;42.908;23.800;2024-01-16T12:49:27;6.22;;;2.35;;
40471;SDS011;26174;42.908;23.800;2024-01-16T12:54:45;8.73;;;2.45;;
40471;SDS011;26174;42.908;23.800;2024-01-16T12:57:16;6.82;;;2.47;;
40471;SDS011;26174;42.908;23.800;2024-01-16T12:59:42;11.75;;;3.97;;
40471;SDS011;26174;42.908;23.800;2024-01-16T13:02:08;11.10;;;3.33;;
40471;SDS011;26174;42.908;23.800;2024-01-16T13:04:33;10.68;;;4.20;;
40471;SDS011;26174;42.908;23.800;2024-01-16T13:07:02;15.07;;;5.10;;
40471;SDS011;26174;42.908;23.800;2024-01-16T13:09:28;20.40;;;6.05;;
40471;SDS011;26174;42.908;23.800;2024-01-16T13:11:54;21.60;;;6.28;;
40471;SDS011;26174;42.908;23.800;2024-01-16T13:14:23;17.80;;;5.13;;
40471;SDS011;26174;42.908;23.800;2024-01-16T13:16:50;18.17;;;5.50;;
40471;SDS011;26174;42.908;23.800;2024-01-16T13:19:20;12.60;;;6.43;;
40471;SDS011;26174;42.908;23.800;2024-01-16T13:21:46;17.33;;;8.00;;
40471;SDS011;26174;42.908;23.800;2024-01-16T13:24:11;22.10;;;8.07;;
40471;SDS011;26174;42.908;23.800;2024-01-16T13:26:40;25.38;;;9.02;;
40471;SDS011;26174;42.908;23.800;2024-01-16T13:29:06;15.80;;;7.55;;
40471;SDS011;26174;42.908;23.800;2024-01-16T13:31:32;13.70;;;6.85;;
40471;SDS011;26174;42.908;23.800;2024-01-16T13:33:58;13.70;;;7.13;;
40471;SDS011;26174;42.908;23.800;2024-01-16T13:36:23;14.10;;;5.57;;
40471;SDS011;26174;42.908;23.800;2024-01-16T13:38:49;6.28;;;3.88;;
40471;SDS011;26174;42.908;23.800;2024-01-16T13:41:15;8.30;;;2.90;;
40471;SDS011;26174;42.908;23.800;2024-01-16T13:43:41;3.53;;;2.67;;
40471;SDS011;26174;42.908;23.800;2024-01-16T13:46:06;6.55;;;3.80;;
40471;SDS011;26174;42.908;23.800;2024-01-16T13:48:34;7.72;;;4.32;;
40471;SDS011;26174;42.908;23.800;2024-01-16T13:50:59;12.20;;;6.03;;
40471;SDS011;26174;42.908;23.800;2024-01-16T13:53:25;13.18;;;7.07;;
40471;SDS011;26174;42.908;23.800;2024-01-16T13:55:51;15.18;;;7.22;;
40471;SDS011;26174;42.908;23.800;2024-01-16T14:00:43;25.55;;;11.00;;
40471;SDS011;26174;42.908;23.800;2024-01-16T14:03:09;12.50;;;6.53;;
40471;SDS011;26174;42.908;23.800;2024-01-16T14:05:36;20.55;;;10.02;;
40471;SDS011;26174;42.908;23.800;2024-01-16T14:08:05;31.35;;;9.43;;
40471;SDS011;26174;42.908;23.800;2024-01-16T14:10:31;20.17;;;8.38;;
40471;SDS011;26174;42.908;23.800;2024-01-16T14:12:56;14.13;;;5.25;;
40471;SDS011;26174;42.908;23.800;2024-01-16T14:15:22;15.52;;;7.97;;
40471;SDS011;26174;42.908;23.800;2024-01-16T14:17:52;7.15;;;4.88;;
40471;SDS011;26174;42.908;23.800;2024-01-16T14:20:19;12.57;;;5.50;;
40471;SDS011;26174;42.908;23.800;2024-01-16T14:22:48;18.75;;;7.95;;
40471;SDS011;26174;42.908;23.800;2024-01-16T14:25:14;17.63;;;8.98;;
40471;SDS011;26174;42.908;23.800;2024-01-16T14:27:44;13.55;;;5.97;;
40471;SDS011;26174;42.908;23.800;2024-01-16T14:30:20;18.23;;;9.20;;
40471;SDS011;26174;42.908;23.800;2024-01-16T14:32:45;20.63;;;8.45;;
40471;SDS011;26174;42.908;23.800;2024-01-16T14:35:13;8.35;;;3.90;;
40471;SDS011;26174;42.908;23.800;2024-01-16T14:37:39;15.88;;;4.78;;
40471;SDS011;26174;42.908;23.800;2024-01-16T14:40:08;9.10;;;5.00;;
40471;SDS011;26174;42.908;23.800;2024-01-16T14:42:54;18.13;;;7.80;;
40471;SDS011;26174;42.908;23.800;2024-01-16T14:45:22;23.27;;;11.80;;
40471;SDS011;26174;42.908;23.800;2024-01-16T14:47:49;26.83;;;12.55;;
40471;SDS011;26174;42.908;23.800;2024-01-16T14:50:15;25.30;;;13.15;;
40471;SDS011;26174;42.908;23.800;2024-01-16T14:52:45;48.30;;;26.13;;